TimeCST,TemperatureF,Dew PointF,Humidity,Sea Level PressureIn,VisibilityMPH,Wind Direction,Wind SpeedMPH,Gust SpeedMPH,PrecipitationIn,Events,Conditions,WindDirDegrees,DateUTC
12:53 AM,43.0,10.9,27,30.26,10.0,South,8.1,16.1,N/A,,Scattered Clouds,170,2012-12-13 06:53:00
1:53 AM,43.0,12.0,28,30.25,10.0,South,8.1,-,N/A,,Mostly Cloudy,170,2012-12-13 07:53:00
2:53 AM,39.9,12.9,33,30.27,10.0,South,5.8,-,N/A,,Partly Cloudy,180,2012-12-13 08:53:00
3:53 AM,42.1,14.0,32,30.26,10.0,South,5.8,-,N/A,,Clear,170,2012-12-13 09:53:00
4:53 AM,39.9,16.0,38,30.25,10.0,South,6.9,-,N/A,,Clear,170,2012-12-13 10:53:00
5:53 AM,41.0,15.8,36,30.25,10.0,South,9.2,-,N/A,,Clear,170,2012-12-13 11:53:00
6:53 AM,39.9,16.0,38,30.27,10.0,South,8.1,-,N/A,,Clear,170,2012-12-13 12:53:00
7:53 AM,39.9,18.0,41,30.27,10.0,South,5.8,-,N/A,,Clear,170,2012-12-13 13:53:00
8:53 AM,45.0,19.0,36,30.30,10.0,South,11.5,-,N/A,,Scattered Clouds,180,2012-12-13 14:53:00
9:53 AM,48.9,18.0,29,30.31,10.0,South,12.7,24.2,N/A,,Partly Cloudy,180,2012-12-13 15:53:00
10:53 AM,52.0,16.0,24,30.29,10.0,South,12.7,25.3,N/A,,Clear,180,2012-12-13 16:53:00
11:53 AM,55.0,17.1,23,30.26,10.0,South,9.2,20.7,N/A,,Clear,180,2012-12-13 17:53:00
12:53 PM,57.0,19.0,23,30.23,10.0,South,10.4,19.6,N/A,,Clear,170,2012-12-13 18:53:00
1:53 PM,59.0,19.0,21,30.20,10.0,South,15.0,23.0,N/A,,Clear,180,2012-12-13 19:53:00
2:53 PM,60.1,19.9,21,30.18,10.0,South,9.2,16.1,N/A,,Clear,170,2012-12-13 20:53:00
3:53 PM,60.1,19.9,21,30.16,10.0,South,10.4,18.4,N/A,,Clear,180,2012-12-13 21:53:00
4:53 PM,57.2,19.4,23,30.16,10.0,SSE,4.6,-,N/A,,Clear,160,2012-12-13 22:53:00
6:53 PM,51.8,19.4,28,30.18,10.0,SSE,5.8,-,N/A,,Partly Cloudy,160,2012-12-14 00:53:00
7:53 PM,51.1,21.0,31,30.19,10.0,SSE,6.9,-,N/A,,Clear,160,2012-12-14 01:53:00
8:53 PM,51.1,21.0,31,30.20,10.0,South,5.8,-,N/A,,Scattered Clouds,170,2012-12-14 02:53:00
9:53 PM,50.0,19.9,31,30.19,10.0,SSE,9.2,-,N/A,,Partly Cloudy,160,2012-12-14 03:53:00
10:53 PM,48.9,19.0,31,30.19,10.0,South,5.8,-,N/A,,Clear,170,2012-12-14 04:53:00
11:53 PM,50.0,19.0,29,30.17,10.0,Variable,6.9,-,N/A,,Clear,0,2012-12-14 05:53:00